sensor_id;sensor_type;location;lat;lon;timestamp;P1;durP1;ratioP1;P2;durP2;ratioP2
52508;SDS011;38420;53.150;6.370;2023-04-15T00:01:21;12.38;;;5.03;;
52508;SDS011;38420;53.150;6.370;2023-04-15T00:03:49;12.95;;;5.57;;
52508;SDS011;38420;53.150;6.370;2023-04-15T00:06:22;14.20;;;5.53;;
52508;SDS011;38420;53.150;6.370;2023-04-15T00:08:48;11.35;;;5.55;;
52508;SDS011;38420;53.150;6.370;2023-04-15T00:11:14;9.93;;;5.38;;
52508;SDS011;38420;53.150;6.370;2023-04-15T00:13:41;11.10;;;5.35;;
52508;SDS011;38420;53.150;6.370;2023-04-15T00:16:07;12.18;;;5.80;;
52508;SDS011;38420;53.150;6.370;2023-04-15T00:18:34;11.13;;;5.90;;
52508;SDS011;38420;53.150;6.370;2023-04-15T00:21:01;11.50;;;5.80;;
52508;SDS011;38420;53.150;6.370;2023-04-15T00:23:27;11.07;;;5.97;;
52508;SDS011;38420;53.150;6.370;2023-04-15T00:25:53;11.77;;;6.43;;
52508;SDS011;38420;53.150;6.370;2023-04-15T00:28:19;13.73;;;5.82;;
52508;SDS011;38420;53.150;6.370;2023-04-15T00:30:45;14.32;;;6.30;;
52508;SDS011;38420;53.150;6.370;2023-04-15T00:33:11;13.13;;;7.22;;
52508;SDS011;38420;53.150;6.370;2023-04-15T00:35:37;15.00;;;7.50;;
52508;SDS011;38420;53.150;6.370;2023-04-15T00:38:04;13.48;;;6.70;;
52508;SDS011;38420;53.150;6.370;2023-04-15T00:40:32;13.38;;;7.03;;
52508;SDS011;38420;53.150;6.370;2023-04-15T00:42:58;14.65;;;6.88;;
52508;SDS011;38420;53.150;6.370;2023-04-15T00:45:24;13.60;;;6.75;;
52508;SDS011;38420;53.150;6.370;2023-04-15T00:47:51;16.80;;;7.53;;
52508;SDS011;38420;53.150;6.370;2023-04-15T00:50:17;15.73;;;7.25;;
52508;SDS011;38420;53.150;6.370;2023-04-15T00:52:43;17.15;;;8.02;;
52508;SDS011;38420;53.150;6.370;2023-04-15T00:55:08;13.80;;;8.70;;
52508;SDS011;38420;53.150;6.370;2023-04-15T00:57:35;16.73;;;7.80;;
52508;SDS011;38420;53.150;6.370;2023-04-15T01:00:01;18.08;;;8.18;;
52508;SDS011;38420;53.150;6.370;2023-04-15T01:02:28;14.25;;;8.32;;
52508;SDS011;38420;53.150;6.370;2023-04-15T01:04:56;18.48;;;8.32;;
52508;SDS011;38420;53.150;6.370;2023-04-15T01:07:22;15.10;;;8.45;;
52508;SDS011;38420;53.150;6.370;2023-04-15T01:09:47;17.80;;;8.90;;
52508;SDS011;38420;53.150;6.370;2023-04-15T01:12:13;18.30;;;9.00;;
52508;SDS011;38420;53.150;6.370;2023-04-15T01:14:40;18.30;;;8.85;;
52508;SDS011;38420;53.150;6.370;2023-04-15T01:17:06;19.52;;;8.85;;
52508;SDS011;38420;53.150;6.370;2023-04-15T01:19:32;18.70;;;8.85;;
52508;SDS011;38420;53.150;6.370;2023-04-15T01:21:58;16.50;;;9.10;;
52508;SDS011;38420;53.150;6.370;2023-04-15T01:24:25;16.52;;;9.57;;
52508;SDS011;38420;53.150;6.370;2023-04-15T01:26:52;17.20;;;9.27;;
52508;SDS011;38420;53.150;6.370;2023-04-15T01:29:18;16.27;;;8.90;;
52508;SDS011;38420;53.150;6.370;2023-04-15T01:31:53;18.42;;;9.52;;
52508;SDS011;38420;53.150;6.370;2023-04-15T01:34:20;15.60;;;8.80;;
52508;SDS011;38420;53.150;6.370;2023-04-15T01:36:46;20.35;;;10.20;;
52508;SDS011;38420;53.150;6.370;2023-04-15T01:39:12;18.88;;;10.38;;
52508;SDS011;38420;53.150;6.370;2023-04-15T01:41:38;22.58;;;10.27;;
52508;SDS011;38420;53.150;6.370;2023-04-15T01:44:04;19.08;;;11.00;;
52508;SDS011;38420;53.150;6.370;2023-04-15T01:46:31;21.80;;;11.18;;
52508;SDS011;38420;53.150;6.370;2023-04-15T01:48:57;18.90;;;11.13;;
52508;SDS011;38420;53.150;6.370;2023-04-15T01:51:23;17.63;;;9.90;;
52508;SDS011;38420;53.150;6.370;2023-04-15T01:53:49;19.63;;;10.80;;
52508;SDS011;38420;53.150;6.370;2023-04-15T01:56:16;15.27;;;10.48;;
52508;SDS011;38420;53.150;6.370;2023-04-15T01:58:42;16.10;;;10.60;;
52508;SDS011;38420;53.150;6.370;2023-04-15T02:01:08;17.52;;;9.93;;
52508;SDS011;38420;53.150;6.370;2023-04-15T02:03:35;17.27;;;11.10;;
52508;SDS011;38420;53.150;6.370;2023-04-15T02:06:01;18.45;;;10.07;;
52508;SDS011;38420;53.150;6.370;2023-04-15T02:08:28;20.77;;;11.00;;
52508;SDS011;38420;53.150;6.370;2023-04-15T02:10:54;16.27;;;9.85;;
52508;SDS011;38420;53.150;6.370;2023-04-15T02:13:20;18.55;;;10.40;;
52508;SDS011;38420;53.150;6.370;2023-04-15T02:15:46;19.40;;;11.32;;
52508;SDS011;38420;53.150;6.370;2023-04-15T02:18:12;17.10;;;9.85;;
52508;SDS011;38420;53.150;6.370;2023-04-15T02:20:39;18.90;;;10.85;;
52508;SDS011;38420;53.150;6.370;2023-04-15T02:23:05;17.55;;;10.43;;
52508;SDS011;38420;53.150;6.370;2023-04-15T02:25:31;17.35;;;10.05;;
52508;SDS011;38420;53.150;6.370;2023-04-15T02:27:57;17.20;;;10.65;;
52508;SDS011;38420;53.150;6.370;2023-04-15T02:30:22;19.58;;;10.48;;
52508;SDS011;38420;53.150;6.370;2023-04-15T02:32:49;20.23;;;10.52;;
52508;SDS011;38420;53.150;6.370;2023-04-15T02:35:15;22.33;;;10.75;;
52508;SDS011;38420;53.150;6.370;2023-04-15T02:37:43;19.52;;;11.38;;
52508;SDS011;38420;53.150;6.370;2023-04-15T02:40:10;20.80;;;10.95;;
52508;SDS011;38420;53.150;6.370;2023-04-15T02:42:37;17.08;;;11.02;;
52508;SDS011;38420;53.150;6.370;2023-04-15T02:45:06;18.23;;;11.25;;
52508;SDS011;38420;53.150;6.370;2023-04-15T02:47:33;19.85;;;10.30;;
52508;SDS011;38420;53.150;6.370;2023-04-15T02:49:59;18.05;;;10.68;;
52508;SDS011;38420;53.150;6.370;2023-04-15T02:52:27;16.48;;;11.30;;
52508;SDS011;38420;53.150;6.370;2023-04-15T02:54:52;17.88;;;11.07;;
52508;SDS011;38420;53.150;6.370;2023-04-15T02:57:21;19.83;;;12.50;;
52508;SDS011;38420;53.150;6.370;2023-04-15T02:59:47;20.00;;;10.98;;
52508;SDS011;38420;53.150;6.370;2023-04-15T03:02:13;21.42;;;11.48;;
52508;SDS011;38420;53.150;6.370;2023-04-15T03:04:38;21.15;;;11.25;;
52508;SDS011;38420;53.150;6.370;2023-04-15T03:07:04;19.42;;;10.73;;
52508;SDS011;38420;53.150;6.370;2023-04-15T03:09:29;20.95;;;11.38;;
52508;SDS011;38420;53.150;6.370;2023-04-15T03:11:55;19.10;;;11.40;;
52508;SDS011;38420;53.150;6.370;2023-04-15T03:14:20;21.10;;;12.20;;
52508;SDS011;38420;53.150;6.370;2023-04-15T03:16:46;18.13;;;11.82;;
52508;SDS011;38420;53.150;6.370;2023-04-15T03:19:12;18.50;;;11.93;;
52508;SDS011;38420;53.150;6.370;2023-04-15T03:21:38;18.35;;;11.77;;
52508;SDS011;38420;53.150;6.370;2023-04-15T03:24:03;18.20;;;10.93;;
52508;SDS011;38420;53.150;6.370;2023-04-15T03:26:30;18.83;;;10.77;;
52508;SDS011;38420;53.150;6.370;2023-04-15T03:28:55;17.88;;;11.23;;
52508;SDS011;38420;53.150;6.370;2023-04-15T03:31:21;19.00;;;10.75;;
52508;SDS011;38420;53.150;6.370;2023-04-15T03:33:47;21.23;;;11.98;;
52508;SDS011;38420;53.150;6.370;2023-04-15T03:36:13;16.77;;;11.13;;
52508;SDS011;38420;53.150;6.370;2023-04-15T03:38:39;17.20;;;11.20;;
52508;SDS011;38420;53.150;6.370;2023-04-15T03:41:04;19.23;;;11.35;;
52508;SDS011;38420;53.150;6.370;2023-04-15T03:43:30;20.08;;;11.18;;
52508;SDS011;38420;53.150;6.370;2023-04-15T03:45:55;19.95;;;11.73;;
52508;SDS011;38420;53.150;6.370;2023-04-15T03:48:21;22.80;;;12.70;;
52508;SDS011;38420;53.150;6.370;2023-04-15T03:50:47;22.17;;;12.50;;
52508;SDS011;38420;53.150;6.370;2023-04-15T03:53:12;27.15;;;14.52;;
52508;SDS011;38420;53.150;6.370;2023-04-15T03:55:38;28.23;;;14.75;;
52508;SDS011;38420;53.150;6.370;2023-04-15T03:58:04;21.55;;;12.23;;
52508;SDS011;38420;53.150;6.370;2023-04-15T04:00:30;23.77;;;14.05;;
52508;SDS011;38420;53.150;6.370;2023-04-15T04:02:56;25.70;;;13.73;;
52508;SDS011;38420;53.150;6.370;2023-04-15T04:05:21;22.23;;;13.23;;
52508;SDS011;38420;53.150;6.370;2023-04-15T04:07:47;28.55;;;14.90;;
52508;SDS011;38420;53.150;6.370;2023-04-15T04:10:13;23.88;;;14.55;;
52508;SDS011;38420;53.150;6.370;2023-04-15T04:12:38;25.52;;;16.08;;
52508;SDS011;38420;53.150;6.370;2023-04-15T04:15:04;27.52;;;15.93;;
52508;SDS011;38420;53.150;6.370;2023-04-15T04:17:30;23.13;;;13.98;;
52508;SDS011;38420;53.150;6.370;2023-04-15T04:19:56;26.73;;;15.82;;
52508;SDS011;38420;53.150;6.370;2023-04-15T04:22:22;27.52;;;15.43;;
52508;SDS011;38420;53.150;6.370;2023-04-15T04:24:48;31.92;;;18.20;;
52508;SDS011;38420;53.150;6.370;2023-04-15T04:27:14;27.13;;;15.40;;
52508;SDS011;38420;53.150;6.370;2023-04-15T04:29:40;26.00;;;16.17;;
52508;SDS011;38420;53.150;6.370;2023-04-15T04:32:06;27.75;;;16.30;;
52508;SDS011;38420;53.150;6.370;2023-04-15T04:34:31;29.45;;;16.85;;
52508;SDS011;38420;53.150;6.370;2023-04-15T04:36:57;28.33;;;16.27;;
52508;SDS011;38420;53.150;6.370;2023-04-15T04:39:22;29.75;;;18.05;;
52508;SDS011;38420;53.150;6.370;2023-04-15T04:41:48;30.80;;;18.15;;
52508;SDS011;38420;53.150;6.370;2023-04-15T04:44:16;30.08;;;17.95;;
52508;SDS011;38420;53.150;6.370;2023-04-15T04:46:41;30.42;;;17.52;;
52508;SDS011;38420;53.150;6.370;2023-04-15T04:49:07;29.88;;;17.92;;
52508;SDS011;38420;53.150;6.370;2023-04-15T04:51:33;33.20;;;18.50;;
52508;SDS011;38420;53.150;6.370;2023-04-15T04:53:58;31.35;;;18.55;;
52508;SDS011;38420;53.150;6.370;2023-04-15T04:56:24;32.70;;;19.02;;
52508;SDS011;38420;53.150;6.370;2023-04-15T04:58:49;27.90;;;17.08;;
52508;SDS011;38420;53.150;6.370;2023-04-15T05:01:15;29.05;;;17.80;;
52508;SDS011;38420;53.150;6.370;2023-04-15T05:03:41;32.88;;;18.75;;
52508;SDS011;38420;53.150;6.370;2023-04-15T05:06:07;31.98;;;18.95;;
52508;SDS011;38420;53.150;6.370;2023-04-15T05:08:32;34.45;;;19.50;;
52508;SDS011;38420;53.150;6.370;2023-04-15T05:10:58;31.60;;;19.15;;
52508;SDS011;38420;53.150;6.370;2023-04-15T05:13:24;34.00;;;20.45;;
52508;SDS011;38420;53.150;6.370;2023-04-15T05:15:50;35.10;;;19.70;;
52508;SDS011;38420;53.150;6.370;2023-04-15T05:18:15;32.75;;;20.25;;
52508;SDS011;38420;53.150;6.370;2023-04-15T05:20:41;35.67;;;19.30;;
52508;SDS011;38420;53.150;6.370;2023-04-15T05:23:06;36.25;;;19.40;;
52508;SDS011;38420;53.150;6.370;2023-04-15T05:25:32;33.80;;;20.20;;
52508;SDS011;38420;53.150;6.370;2023-04-15T05:27:58;39.67;;;20.42;;
52508;SDS011;38420;53.150;6.370;2023-04-15T05:30:24;34.60;;;21.45;;
52508;SDS011;38420;53.150;6.370;2023-04-15T05:32:50;39.58;;;21.48;;
52508;SDS011;38420;53.150;6.370;2023-04-15T05:35:15;37.42;;;18.60;;
52508;SDS011;38420;53.150;6.370;2023-04-15T05:37:41;38.28;;;20.67;;
52508;SDS011;38420;53.150;6.370;2023-04-15T05:40:07;36.08;;;20.83;;
52508;SDS011;38420;53.150;6.370;2023-04-15T05:42:34;33.35;;;20.95;;
52508;SDS011;38420;53.150;6.370;2023-04-15T05:45:00;34.53;;;19.60;;
52508;SDS011;38420;53.150;6.370;2023-04-15T05:47:29;32.75;;;18.38;;
52508;SDS011;38420;53.150;6.370;2023-04-15T05:49:55;32.72;;;19.42;;
52508;SDS011;38420;53.150;6.370;2023-04-15T05:52:20;33.78;;;18.83;;
52508;SDS011;38420;53.150;6.370;2023-04-15T05:54:46;30.48;;;17.60;;
52508;SDS011;38420;53.150;6.370;2023-04-15T05:57:12;31.23;;;18.88;;
52508;SDS011;38420;53.150;6.370;2023-04-15T05:59:37;28.42;;;16.83;;
52508;SDS011;38420;53.150;6.370;2023-04-15T06:02:03;28.17;;;17.73;;
52508;SDS011;38420;53.150;6.370;2023-04-15T06:04:29;31.25;;;17.50;;
52508;SDS011;38420;53.150;6.370;2023-04-15T06:06:54;29.05;;;16.48;;
52508;SDS011;38420;53.150;6.370;2023-04-15T06:09:23;26.73;;;16.48;;
52508;SDS011;38420;53.150;6.370;2023-04-15T06:11:50;29.63;;;16.95;;
52508;SDS011;38420;53.150;6.370;2023-04-15T06:14:16;27.60;;;15.50;;
52508;SDS011;38420;53.150;6.370;2023-04-15T06:16:41;27.98;;;16.90;;
52508;SDS011;38420;53.150;6.370;2023-04-15T06:19:07;28.45;;;17.08;;
52508;SDS011;38420;53.150;6.370;2023-04-15T06:21:32;26.42;;;16.75;;
52508;SDS011;38420;53.150;6.370;2023-04-15T06:23:58;28.48;;;16.58;;
52508;SDS011;38420;53.150;6.370;2023-04-15T06:26:25;25.75;;;16.15;;
52508;SDS011;38420;53.150;6.370;2023-04-15T06:28:51;25.63;;;15.25;;
52508;SDS011;38420;53.150;6.370;2023-04-15T06:31:16;27.05;;;15.27;;
52508;SDS011;38420;53.150;6.370;2023-04-15T06:33:42;26.55;;;15.30;;
52508;SDS011;38420;53.150;6.370;2023-04-15T06:36:07;29.98;;;16.63;;
52508;SDS011;38420;53.150;6.370;2023-04-15T06:38:33;24.73;;;14.63;;
52508;SDS011;38420;53.150;6.370;2023-04-15T06:40:59;25.23;;;16.02;;
52508;SDS011;38420;53.150;6.370;2023-04-15T06:43:25;25.50;;;14.57;;
52508;SDS011;38420;53.150;6.370;2023-04-15T06:45:50;26.13;;;14.82;;
52508;SDS011;38420;53.150;6.370;2023-04-15T06:48:16;27.63;;;15.05;;
52508;SDS011;38420;53.150;6.370;2023-04-15T06:50:42;23.55;;;14.80;;
52508;SDS011;38420;53.150;6.370;2023-04-15T06:53:07;28.20;;;15.07;;
52508;SDS011;38420;53.150;6.370;2023-04-15T06:55:33;29.83;;;16.08;;
52508;SDS011;38420;53.150;6.370;2023-04-15T06:57:58;24.92;;;14.07;;
52508;SDS011;38420;53.150;6.370;2023-04-15T07:00:24;25.40;;;14.85;;
52508;SDS011;38420;53.150;6.370;2023-04-15T07:02:50;25.33;;;14.80;;
52508;SDS011;38420;53.150;6.370;2023-04-15T07:05:15;31.10;;;16.08;;
52508;SDS011;38420;53.150;6.370;2023-04-15T07:07:42;26.05;;;14.10;;
52508;SDS011;38420;53.150;6.370;2023-04-15T07:10:07;26.50;;;15.50;;
52508;SDS011;38420;53.150;6.370;2023-04-15T07:12:34;23.48;;;13.77;;
52508;SDS011;38420;53.150;6.370;2023-04-15T07:14:59;22.85;;;13.25;;
52508;SDS011;38420;53.150;6.370;2023-04-15T07:17:25;18.33;;;12.15;;
52508;SDS011;38420;53.150;6.370;2023-04-15T07:19:51;23.42;;;11.70;;
52508;SDS011;38420;53.150;6.370;2023-04-15T07:22:16;20.70;;;12.25;;
52508;SDS011;38420;53.150;6.370;2023-04-15T07:24:42;20.00;;;10.60;;
52508;SDS011;38420;53.150;6.370;2023-04-15T07:27:07;14.45;;;9.70;;
52508;SDS011;38420;53.150;6.370;2023-04-15T07:29:33;17.70;;;9.50;;
52508;SDS011;38420;53.150;6.370;2023-04-15T07:31:59;16.73;;;8.05;;
52508;SDS011;38420;53.150;6.370;2023-04-15T07:34:25;14.50;;;8.68;;
52508;SDS011;38420;53.150;6.370;2023-04-15T07:36:50;14.32;;;8.32;;
52508;SDS011;38420;53.150;6.370;2023-04-15T07:39:17;13.93;;;8.57;;
52508;SDS011;38420;53.150;6.370;2023-04-15T07:41:43;14.68;;;8.38;;
52508;SDS011;38420;53.150;6.370;2023-04-15T07:44:08;14.38;;;7.85;;
52508;SDS011;38420;53.150;6.370;2023-04-15T07:46:34;12.45;;;7.85;;
52508;SDS011;38420;53.150;6.370;2023-04-15T07:49:01;14.88;;;8.23;;
52508;SDS011;38420;53.150;6.370;2023-04-15T07:51:26;13.15;;;7.60;;
52508;SDS011;38420;53.150;6.370;2023-04-15T07:53:53;12.88;;;7.97;;
52508;SDS011;38420;53.150;6.370;2023-04-15T07:56:19;14.05;;;8.23;;
52508;SDS011;38420;53.150;6.370;2023-04-15T07:58:44;13.48;;;7.80;;
52508;SDS011;38420;53.150;6.370;2023-04-15T08:01:10;12.98;;;8.27;;
52508;SDS011;38420;53.150;6.370;2023-04-15T08:03:36;12.88;;;7.65;;
52508;SDS011;38420;53.150;6.370;2023-04-15T08:06:02;14.35;;;8.27;;
52508;SDS011;38420;53.150;6.370;2023-04-15T08:08:27;16.52;;;8.00;;
52508;SDS011;38420;53.150;6.370;2023-04-15T08:10:53;11.90;;;7.25;;
52508;SDS011;38420;53.150;6.370;2023-04-15T08:13:19;12.45;;;6.60;;
52508;SDS011;38420;53.150;6.370;2023-04-15T08:15:45;12.55;;;6.97;;
52508;SDS011;38420;53.150;6.370;2023-04-15T08:18:10;10.27;;;6.72;;
52508;SDS011;38420;53.150;6.370;2023-04-15T08:20:36;13.43;;;6.05;;
52508;SDS011;38420;53.150;6.370;2023-04-15T08:23:02;15.07;;;6.65;;
52508;SDS011;38420;53.150;6.370;2023-04-15T08:25:28;10.85;;;5.97;;
52508;SDS011;38420;53.150;6.370;2023-04-15T08:27:54;11.35;;;5.90;;
52508;SDS011;38420;53.150;6.370;2023-04-15T08:30:21;11.80;;;6.53;;
52508;SDS011;38420;53.150;6.370;2023-04-15T08:32:48;15.15;;;6.75;;
52508;SDS011;38420;53.150;6.370;2023-04-15T08:35:14;11.77;;;6.97;;
52508;SDS011;38420;53.150;6.370;2023-04-15T08:37:40;13.15;;;5.90;;
52508;SDS011;38420;53.150;6.370;2023-04-15T08:40:05;11.93;;;6.38;;
52508;SDS011;38420;53.150;6.370;2023-04-15T08:42:36;10.05;;;6.13;;
52508;SDS011;38420;53.150;6.370;2023-04-15T08:45:06;12.38;;;6.13;;
52508;SDS011;38420;53.150;6.370;2023-04-15T08:47:34;9.75;;;4.90;;
52508;SDS011;38420;53.150;6.370;2023-04-15T08:50:03;9.07;;;4.72;;
52508;SDS011;38420;53.150;6.370;2023-04-15T08:52:33;10.10;;;5.07;;
52508;SDS011;38420;53.150;6.370;2023-04-15T08:54:59;15.07;;;5.25;;
52508;SDS011;38420;53.150;6.370;2023-04-15T08:57:27;14.32;;;4.63;;
52508;SDS011;38420;53.150;6.370;2023-04-15T08:59:56;7.72;;;3.88;;
52508;SDS011;38420;53.150;6.370;2023-04-15T09:02:25;6.03;;;3.92;;
52508;SDS011;38420;53.150;6.370;2023-04-15T09:04:51;7.00;;;4.63;;
52508;SDS011;38420;53.150;6.370;2023-04-15T09:07:17;9.10;;;3.58;;
52508;SDS011;38420;53.150;6.370;2023-04-15T09:09:43;6.70;;;3.60;;
52508;SDS011;38420;53.150;6.370;2023-04-15T09:12:10;11.35;;;4.80;;
52508;SDS011;38420;53.150;6.370;2023-04-15T09:14:38;6.70;;;3.67;;
52508;SDS011;38420;53.150;6.370;2023-04-15T09:17:04;8.05;;;3.90;;
52508;SDS011;38420;53.150;6.370;2023-04-15T09:19:34;6.85;;;3.20;;
52508;SDS011;38420;53.150;6.370;2023-04-15T09:22:00;10.32;;;3.80;;
52508;SDS011;38420;53.150;6.370;2023-04-15T09:24:33;8.45;;;3.85;;
52508;SDS011;38420;53.150;6.370;2023-04-15T09:27:01;10.70;;;4.22;;
52508;SDS011;38420;53.150;6.370;2023-04-15T09:29:27;8.73;;;3.92;;
52508;SDS011;38420;53.150;6.370;2023-04-15T09:31:53;8.40;;;3.55;;
52508;SDS011;38420;53.150;6.370;2023-04-15T09:34:18;6.75;;;2.90;;
52508;SDS011;38420;53.150;6.370;2023-04-15T09:36:55;7.95;;;3.55;;
52508;SDS011;38420;53.150;6.370;2023-04-15T09:39:21;7.72;;;2.85;;
52508;SDS011;38420;53.150;6.370;2023-04-15T09:42:08;7.03;;;2.78;;
52508;SDS011;38420;53.150;6.370;2023-04-15T09:44:33;5.93;;;2.13;;
52508;SDS011;38420;53.150;6.370;2023-04-15T09:46:59;5.32;;;2.30;;
52508;SDS011;38420;53.150;6.370;2023-04-15T09:49:25;4.80;;;1.85;;
52508;SDS011;38420;53.150;6.370;2023-04-15T09:51:56;5.00;;;1.75;;
52508;SDS011;38420;53.150;6.370;2023-04-15T09:54:23;6.25;;;2.35;;
52508;SDS011;38420;53.150;6.370;2023-04-15T09:56:49;4.28;;;1.77;;
52508;SDS011;38420;53.150;6.370;2023-04-15T09:59:15;2.72;;;1.40;;
52508;SDS011;38420;53.150;6.370;2023-04-15T10:01:41;4.22;;;1.60;;
52508;SDS011;38420;53.150;6.370;2023-04-15T10:04:07;3.05;;;1.75;;
52508;SDS011;38420;53.150;6.370;2023-04-15T10:06:33;3.90;;;1.80;;
52508;SDS011;38420;53.150;6.370;2023-04-15T10:09:00;5.38;;;1.60;;
52508;SDS011;38420;53.150;6.370;2023-04-15T10:11:27;3.30;;;1.52;;
52508;SDS011;38420;53.150;6.370;2023-04-15T10:13:53;2.75;;;1.33;;
52508;SDS011;38420;53.150;6.370;2023-04-15T10:16:21;2.83;;;1.42;;
52508;SDS011;38420;53.150;6.370;2023-04-15T10:18:52;2.15;;;1.35;;
52508;SDS011;38420;53.150;6.370;2023-04-15T10:21:20;2.95;;;1.60;;
52508;SDS011;38420;53.150;6.370;2023-04-15T10:23:47;3.65;;;1.98;;
52508;SDS011;38420;53.150;6.370;2023-04-15T10:26:14;3.15;;;1.58;;
52508;SDS011;38420;53.150;6.370;2023-04-15T10:28:41;3.05;;;1.67;;
52508;SDS011;38420;53.150;6.370;2023-04-15T10:31:07;3.33;;;1.77;;
52508;SDS011;38420;53.150;6.370;2023-04-15T10:33:36;3.60;;;1.63;;
52508;SDS011;38420;53.150;6.370;2023-04-15T10:36:03;4.20;;;1.92;;
52508;SDS011;38420;53.150;6.370;2023-04-15T10:38:40;2.83;;;1.50;;
52508;SDS011;38420;53.150;6.370;2023-04-15T10:43:56;3.40;;;1.70;;
52508;SDS011;38420;53.150;6.370;2023-04-15T10:46:36;3.40;;;1.50;;
52508;SDS011;38420;53.150;6.370;2023-04-15T10:49:13;3.75;;;1.80;;
52508;SDS011;38420;53.150;6.370;2023-04-15T10:51:57;3.13;;;1.50;;
52508;SDS011;38420;53.150;6.370;2023-04-15T10:57:22;5.15;;;2.05;;
52508;SDS011;38420;53.150;6.370;2023-04-15T10:59:59;4.47;;;2.55;;
52508;SDS011;38420;53.150;6.370;2023-04-15T11:08:11;3.25;;;2.00;;
52508;SDS011;38420;53.150;6.370;2023-04-15T11:13:03;3.88;;;1.90;;
52508;SDS011;38420;53.150;6.370;2023-04-15T11:15:34;5.68;;;2.00;;
52508;SDS011;38420;53.150;6.370;2023-04-15T11:23:12;5.97;;;2.08;;
52508;SDS011;38420;53.150;6.370;2023-04-15T11:25:41;6.40;;;2.25;;
52508;SDS011;38420;53.150;6.370;2023-04-15T11:28:08;6.95;;;2.30;;
52508;SDS011;38420;53.150;6.370;2023-04-15T11:30:35;7.38;;;2.30;;
52508;SDS011;38420;53.150;6.370;2023-04-15T11:33:08;10.10;;;3.15;;
52508;SDS011;38420;53.150;6.370;2023-04-15T11:35:36;7.25;;;2.78;;
52508;SDS011;38420;53.150;6.370;2023-04-15T11:38:04;10.10;;;2.15;;
52508;SDS011;38420;53.150;6.370;2023-04-15T11:40:34;4.40;;;1.73;;
52508;SDS011;38420;53.150;6.370;2023-04-15T11:43:07;7.72;;;2.33;;
52508;SDS011;38420;53.150;6.370;2023-04-15T11:45:54;6.30;;;1.83;;
52508;SDS011;38420;53.150;6.370;2023-04-15T11:48:22;7.47;;;2.10;;
52508;SDS011;38420;53.150;6.370;2023-04-15T11:50:53;8.00;;;2.17;;
52508;SDS011;38420;53.150;6.370;2023-04-15T11:53:20;5.75;;;2.00;;
52508;SDS011;38420;53.150;6.370;2023-04-15T11:55:48;7.72;;;2.78;;
52508;SDS011;38420;53.150;6.370;2023-04-15T12:00:51;6.05;;;1.63;;
52508;SDS011;38420;53.150;6.370;2023-04-15T12:13:52;10.77;;;2.00;;
52508;SDS011;38420;53.150;6.370;2023-04-15T12:16:19;6.70;;;2.22;;
52508;SDS011;38420;53.150;6.370;2023-04-15T12:18:45;8.25;;;1.85;;
52508;SDS011;38420;53.150;6.370;2023-04-15T12:21:12;11.02;;;2.30;;
52508;SDS011;38420;53.150;6.370;2023-04-15T12:23:47;9.02;;;2.25;;
52508;SDS011;38420;53.150;6.370;2023-04-15T12:26:14;6.80;;;1.73;;
52508;SDS011;38420;53.150;6.370;2023-04-15T12:28:41;8.43;;;1.52;;
52508;SDS011;38420;53.150;6.370;2023-04-15T12:31:07;10.77;;;2.30;;
52508;SDS011;38420;53.150;6.370;2023-04-15T12:33:37;9.10;;;2.08;;
52508;SDS011;38420;53.150;6.370;2023-04-15T12:36:03;10.60;;;2.10;;
52508;SDS011;38420;53.150;6.370;2023-04-15T12:38:29;6.22;;;1.58;;
52508;SDS011;38420;53.150;6.370;2023-04-15T12:40:55;10.07;;;1.83;;
52508;SDS011;38420;53.150;6.370;2023-04-15T12:43:22;9.15;;;1.90;;
52508;SDS011;38420;53.150;6.370;2023-04-15T12:45:47;7.07;;;1.75;;
52508;SDS011;38420;53.150;6.370;2023-04-15T12:48:13;9.23;;;1.85;;
52508;SDS011;38420;53.150;6.370;2023-04-15T12:50:38;8.00;;;1.70;;
52508;SDS011;38420;53.150;6.370;2023-04-15T12:53:04;8.23;;;2.30;;
52508;SDS011;38420;53.150;6.370;2023-04-15T12:55:30;10.88;;;2.45;;
52508;SDS011;38420;53.150;6.370;2023-04-15T12:57:56;11.13;;;2.30;;
52508;SDS011;38420;53.150;6.370;2023-04-15T13:00:21;15.40;;;2.42;;
52508;SDS011;38420;53.150;6.370;2023-04-15T13:02:47;11.73;;;2.15;;
52508;SDS011;38420;53.150;6.370;2023-04-15T13:05:13;12.75;;;2.10;;
52508;SDS011;38420;53.150;6.370;2023-04-15T13:07:40;10.25;;;1.80;;
52508;SDS011;38420;53.150;6.370;2023-04-15T13:10:06;8.25;;;1.67;;
52508;SDS011;38420;53.150;6.370;2023-04-15T13:12:32;9.23;;;1.95;;
52508;SDS011;38420;53.150;6.370;2023-04-15T13:15:01;8.55;;;2.05;;
52508;SDS011;38420;53.150;6.370;2023-04-15T13:17:28;11.52;;;1.83;;
52508;SDS011;38420;53.150;6.370;2023-04-15T13:19:53;12.48;;;2.05;;
52508;SDS011;38420;53.150;6.370;2023-04-15T13:22:19;8.05;;;2.20;;
52508;SDS011;38420;53.150;6.370;2023-04-15T13:24:45;12.02;;;2.22;;
52508;SDS011;38420;53.150;6.370;2023-04-15T13:27:11;7.68;;;1.65;;
52508;SDS011;38420;53.150;6.370;2023-04-15T13:29:36;13.00;;;2.33;;
52508;SDS011;38420;53.150;6.370;2023-04-15T13:32:03;6.03;;;1.98;;
52508;SDS011;38420;53.150;6.370;2023-04-15T13:34:28;11.68;;;2.08;;
52508;SDS011;38420;53.150;6.370;2023-04-15T13:36:54;9.13;;;2.08;;
52508;SDS011;38420;53.150;6.370;2023-04-15T13:39:20;9.63;;;2.20;;
52508;SDS011;38420;53.150;6.370;2023-04-15T13:41:45;14.73;;;2.40;;
52508;SDS011;38420;53.150;6.370;2023-04-15T13:44:12;16.08;;;2.55;;
52508;SDS011;38420;53.150;6.370;2023-04-15T13:46:38;14.60;;;2.78;;
52508;SDS011;38420;53.150;6.370;2023-04-15T13:49:05;10.15;;;2.30;;
52508;SDS011;38420;53.150;6.370;2023-04-15T13:51:31;14.38;;;3.80;;
52508;SDS011;38420;53.150;6.370;2023-04-15T13:53:57;9.10;;;2.83;;
52508;SDS011;38420;53.150;6.370;2023-04-15T13:56:23;9.70;;;1.80;;
52508;SDS011;38420;53.150;6.370;2023-04-15T13:58:48;15.38;;;2.83;;
52508;SDS011;38420;53.150;6.370;2023-04-15T14:01:14;12.35;;;3.42;;
52508;SDS011;38420;53.150;6.370;2023-04-15T14:03:40;13.02;;;2.60;;
52508;SDS011;38420;53.150;6.370;2023-04-15T14:06:05;10.73;;;2.70;;
52508;SDS011;38420;53.150;6.370;2023-04-15T14:08:31;8.18;;;2.67;;
52508;SDS011;38420;53.150;6.370;2023-04-15T14:10:57;11.10;;;3.55;;
52508;SDS011;38420;53.150;6.370;2023-04-15T14:13:23;17.75;;;3.17;;
52508;SDS011;38420;53.150;6.370;2023-04-15T14:15:49;9.48;;;2.20;;
52508;SDS011;38420;53.150;6.370;2023-04-15T14:18:14;11.10;;;2.85;;
52508;SDS011;38420;53.150;6.370;2023-04-15T14:20:40;11.57;;;2.70;;
52508;SDS011;38420;53.150;6.370;2023-04-15T14:23:06;12.82;;;2.88;;
52508;SDS011;38420;53.150;6.370;2023-04-15T14:25:31;16.92;;;4.35;;
52508;SDS011;38420;53.150;6.370;2023-04-15T14:27:57;14.20;;;3.20;;
52508;SDS011;38420;53.150;6.370;2023-04-15T14:30:22;11.98;;;2.50;;
52508;SDS011;38420;53.150;6.370;2023-04-15T14:32:48;18.15;;;3.35;;
52508;SDS011;38420;53.150;6.370;2023-04-15T14:35:14;15.00;;;3.40;;
52508;SDS011;38420;53.150;6.370;2023-04-15T14:37:39;13.85;;;2.70;;
52508;SDS011;38420;53.150;6.370;2023-04-15T14:40:05;15.00;;;2.97;;
52508;SDS011;38420;53.150;6.370;2023-04-15T14:42:31;17.00;;;4.35;;
52508;SDS011;38420;53.150;6.370;2023-04-15T14:44:57;11.27;;;3.22;;
52508;SDS011;38420;53.150;6.370;2023-04-15T14:47:22;11.60;;;3.03;;
52508;SDS011;38420;53.150;6.370;2023-04-15T14:49:48;17.02;;;3.72;;
52508;SDS011;38420;53.150;6.370;2023-04-15T14:52:14;17.10;;;3.70;;
52508;SDS011;38420;53.150;6.370;2023-04-15T14:54:40;14.10;;;4.20;;
52508;SDS011;38420;53.150;6.370;2023-04-15T14:57:06;22.70;;;4.18;;
52508;SDS011;38420;53.150;6.370;2023-04-15T14:59:32;15.15;;;4.15;;
52508;SDS011;38420;53.150;6.370;2023-04-15T15:01:58;14.75;;;4.85;;